createdAt,value
2023-02-19T00:45:34.960Z,101193.25
2023-02-19T00:48:02.626Z,101193.25
2023-02-19T00:50:30.242Z,101181.25
2023-02-19T00:52:57.821Z,101174.84
2023-02-19T00:55:25.449Z,101179.28
2023-02-19T00:57:53.035Z,101169.25
2023-02-19T01:45:53.324Z,101115.19
2023-02-19T01:48:21.804Z,101115.19
2023-02-19T01:50:50.387Z,101108.44
2023-02-19T01:53:19.597Z,101101.19
2023-02-19T01:55:48.473Z,101105.16
2023-02-19T01:58:16.371Z,101109.59
2023-02-19T02:47:44.863Z,101066.75
2023-02-19T02:50:14.370Z,101065.09
2023-02-19T02:53:00.222Z,101065.09
2023-02-19T02:55:27.809Z,101070.69
2023-02-19T02:57:55.435Z,101065.09
2023-02-19T03:47:21.144Z,101101.44
2023-02-19T03:49:49.999Z,101102.28
2023-02-19T03:52:20.421Z,101103.44
2023-02-19T03:54:49.037Z,101114.63
2023-02-19T03:57:18.073Z,101110.44
2023-02-19T03:59:47.550Z,101124.53
2023-02-19T04:46:09.384Z,101164.84
2023-02-19T04:48:37.520Z,101163.69
2023-02-19T04:51:06.265Z,101159.25
2023-02-19T04:53:33.934Z,101172.06
2023-02-19T04:56:06.769Z,101172.06
2023-02-19T04:58:34.665Z,101180.47
2023-02-19T05:47:57.818Z,101192.81
2023-02-19T05:50:25.436Z,101191.66
2023-02-19T05:52:53.099Z,101184.66
2023-02-19T05:55:20.779Z,101212.03
2023-02-19T05:57:49.002Z,101216.81
2023-02-19T06:00:17.206Z,101217.63
2023-02-19T06:02:45.069Z,101216.81
2023-02-19T06:05:14.120Z,101221.59
2023-02-19T06:07:42.841Z,101220.78
2023-02-19T06:10:10.643Z,101221.09
2023-02-19T06:12:38.256Z,101219.13
2023-02-19T06:15:06.358Z,101221.91
2023-02-19T06:17:33.931Z,101223.91
2023-02-19T06:20:01.679Z,101221.91
2023-02-19T06:22:30.681Z,101227.50
2023-02-19T06:24:58.307Z,101237.06
2023-02-19T06:27:25.932Z,101233.47
2023-02-19T06:29:53.794Z,101239.06
2023-02-19T06:32:21.663Z,101249.44
2023-02-19T06:34:49.382Z,101255.84
2023-02-19T06:37:17.180Z,101253.41
2023-02-19T06:39:46.250Z,101252.22
2023-02-19T06:42:14.081Z,101255.03
2023-02-19T06:44:41.902Z,101253.41
2023-02-19T06:47:09.545Z,101276.56
2023-02-19T06:49:37.490Z,101284.16
2023-02-19T06:52:05.300Z,101288.56
2023-02-19T06:54:33.453Z,101294.16
2023-02-19T06:57:02.544Z,101294.97
2023-02-19T06:59:30.174Z,101296.97
2023-02-19T07:01:57.846Z,101312.56
2023-02-19T07:04:25.756Z,101313.38
2023-02-19T07:06:53.692Z,101322.94
2023-02-19T07:09:21.521Z,101312.56
2023-02-19T07:11:49.107Z,101312.56
2023-02-19T07:14:18.187Z,101332.16
2023-02-19T07:16:47.334Z,101336.94
2023-02-19T07:19:15.112Z,101332.97
2023-02-19T07:21:42.713Z,101342.16
2023-02-19T07:24:10.532Z,101343.31
2023-02-19T07:26:38.335Z,101348.91
2023-02-19T07:29:06.201Z,101351.41
2023-02-19T07:31:35.582Z,101352.22
2023-02-19T07:34:03.565Z,101361.41
2023-02-19T07:36:31.382Z,101357.81
2023-02-19T07:38:59.333Z,101355.00
2023-02-19T07:41:27.115Z,101361.41
2023-02-19T07:43:57.836Z,101367.81
2023-02-19T07:46:25.534Z,101367.81
2023-02-19T07:48:54.610Z,101379.00
2023-02-19T07:51:22.496Z,101378.19
2023-02-19T07:53:50.469Z,101381.81
2023-02-19T07:56:18.104Z,101391.81
2023-02-19T07:58:46.430Z,101401.38
2023-02-19T08:01:15.254Z,101411.38
2023-02-19T08:03:42.132Z,101406.97
2023-02-19T08:06:12.112Z,101419.78
2023-02-19T08:08:39.820Z,101424.22
2023-02-19T08:11:25.057Z,101417.44
2023-02-19T08:13:53.278Z,101432.59
2023-02-19T08:16:33.144Z,101432.59
2023-02-19T08:19:08.968Z,101439.81
2023-02-19T08:21:38.266Z,101442.63
2023-02-19T08:24:06.714Z,101450.19
2023-02-19T08:26:34.425Z,101440.03
2023-02-19T08:29:02.075Z,101456.59
2023-02-19T08:31:29.812Z,101475.84
2023-02-19T08:33:57.468Z,101480.63
2023-02-19T08:36:25.079Z,101477.34
2023-02-19T08:38:54.551Z,101485.41
2023-02-19T08:41:22.577Z,101490.16
2023-02-19T08:43:50.342Z,101493.81
2023-02-19T08:46:18.573Z,101497.41
2023-02-19T08:48:46.257Z,101505.81
2023-02-19T08:51:14.211Z,101508.59
2023-02-19T08:53:42.148Z,101511.03
2023-02-19T08:56:11.850Z,101512.53
2023-02-19T08:58:40.626Z,101512.22
2023-02-19T09:01:09.849Z,101513.38
2023-02-19T09:03:38.083Z,101514.19
2023-02-19T09:06:06.376Z,101519.78
2023-02-19T09:08:34.290Z,101531.78
2023-02-19T09:11:02.442Z,101525.38
2023-02-19T09:13:31.601Z,101523.72
2023-02-19T09:15:59.401Z,101525.38
2023-02-19T09:18:27.207Z,101521.78
2023-02-19T09:20:55.156Z,101533.78
2023-02-19T09:23:23.025Z,101536.56
2023-02-19T09:25:50.666Z,101535.75
2023-02-19T09:28:18.492Z,101544.47
2023-02-19T09:30:47.533Z,101546.94
2023-02-19T09:33:15.250Z,101548.88
2023-02-19T09:35:42.995Z,101553.34
2023-02-19T09:38:11.314Z,101558.13
2023-02-19T09:40:39.649Z,101566.84
2023-02-19T09:43:07.532Z,101564.84
2023-02-19T09:45:35.255Z,101568.47
2023-02-19T09:48:06.315Z,101574.06
2023-02-19T09:50:37.539Z,101568.47
2023-02-19T09:53:05.960Z,101576.84
2023-02-19T09:55:36.219Z,101581.31
2023-02-19T09:58:04.619Z,101587.72
2023-02-19T10:00:33.034Z,101592.50
2023-02-19T10:03:03.070Z,101586.09
2023-02-19T10:05:32.172Z,101586.91
2023-02-19T10:08:00.133Z,101591.69
2023-02-19T10:10:31.814Z,101596.44
2023-02-19T10:13:01.226Z,101598.09
2023-02-19T10:15:30.972Z,101609.28
2023-02-19T10:17:58.776Z,101613.22
2023-02-19T10:20:27.844Z,101619.66
2023-02-19T10:22:58.896Z,101626.06
2023-02-19T10:25:26.684Z,101618.81
2023-02-19T10:27:54.598Z,101637.25
2023-02-19T10:30:23.991Z,101635.28
2023-02-19T10:33:01.871Z,101640.03
2023-02-19T10:35:29.951Z,101644.47
2023-02-19T10:37:59.155Z,101648.09
2023-02-19T10:40:27.260Z,101651.69
2023-02-19T10:42:56.124Z,101657.31
2023-02-19T10:45:24.425Z,101651.69
2023-02-19T10:47:52.350Z,101655.66
2023-02-19T10:50:21.734Z,101669.66
2023-02-19T10:52:52.335Z,101670.13
2023-02-19T10:55:28.322Z,101664.88
2023-02-19T10:57:56.432Z,101674.09
2023-02-19T11:00:26.733Z,101674.09
2023-02-19T11:03:13.202Z,101690.03
2023-02-19T11:05:41.393Z,101698.09
2023-02-19T11:08:17.111Z,101701.91
2023-02-19T11:10:46.138Z,101702.06
2023-02-19T11:13:14.757Z,101713.25
2023-02-19T11:15:42.296Z,101713.25
2023-02-19T11:18:16.295Z,101717.19
2023-02-19T11:20:46.484Z,101719.19
2023-02-19T11:23:15.081Z,101716.38
2023-02-19T11:25:46.961Z,101713.25
2023-02-19T11:28:21.700Z,101708.81
2023-02-19T11:30:49.646Z,101712.41
2023-02-19T11:33:34.917Z,101717.19
2023-02-19T11:36:17.593Z,101733.97
2023-02-19T11:38:45.207Z,101730.03
2023-02-19T11:41:15.114Z,101735.63
2023-02-19T11:43:51.241Z,101724.44
2023-02-19T11:46:20.729Z,101724.44
2023-02-19T11:48:59.603Z,101720.00
2023-02-19T11:51:32.165Z,101716.03
2023-02-19T11:54:02.158Z,101713.59
2023-02-19T11:56:34.050Z,101721.16
2023-02-19T11:59:02.363Z,101717.19
2023-02-19T12:01:33.348Z,101731.19
2023-02-19T12:04:05.818Z,101738.75
2023-02-19T12:06:34.436Z,101745.97
2023-02-19T12:09:17.128Z,101727.56
2023-02-19T12:11:59.532Z,101728.38
2023-02-19T12:14:46.426Z,101744.00
2023-02-19T12:17:15.779Z,101736.78
2023-02-19T12:19:45.936Z,101746.47
2023-02-19T12:22:19.504Z,101748.94
2023-02-19T12:24:53.284Z,101751.72
2023-02-19T12:27:25.030Z,101758.97
2023-02-19T12:30:10.506Z,101753.38
2023-02-19T12:32:41.709Z,101765.38
2023-02-19T12:35:22.632Z,101768.19
2023-02-19T12:37:52.273Z,101766.19
2023-02-19T12:40:25.969Z,101759.44
2023-02-19T12:42:58.475Z,101771.78
2023-02-19T12:45:28.019Z,101756.63
2023-02-19T12:47:58.554Z,101761.41
2023-02-19T12:50:26.621Z,101756.63
2023-02-19T12:52:55.439Z,101761.06
2023-02-19T12:55:23.610Z,101779.00
2023-02-19T12:57:51.304Z,101780.19
2023-02-19T13:00:26.387Z,101773.41
2023-02-19T13:02:55.306Z,101794.16
2023-02-19T13:05:24.350Z,101791.84
2023-02-19T13:07:54.482Z,101793.81
2023-02-19T13:10:25.328Z,101799.06
2023-02-19T13:12:53.117Z,101803.03
2023-02-19T13:15:22.227Z,101804.66
2023-02-19T13:17:51.746Z,101811.41
2023-02-19T13:20:25.754Z,101808.63
2023-02-19T13:23:12.435Z,101808.63
2023-02-19T13:25:44.132Z,101801.41
2023-02-19T13:28:14.340Z,101808.16
2023-02-19T13:30:44.719Z,101799.75
2023-02-19T13:33:22.532Z,101808.16
2023-02-19T13:36:08.301Z,101812.59
2023-02-19T13:38:37.989Z,101801.41
2023-02-19T13:41:06.003Z,101807.00
2023-02-19T13:43:35.611Z,101796.97
2023-02-19T13:46:04.021Z,101790.22
2023-02-19T13:48:33.504Z,101809.31
2023-02-19T13:51:21.539Z,101817.69
2023-02-19T13:53:57.513Z,101813.28
2023-02-19T13:56:37.723Z,101810.47
2023-02-19T13:59:15.185Z,101818.19
2023-02-19T14:02:16.638Z,101821.66
2023-02-19T14:04:51.522Z,101824.47
2023-02-19T14:07:46.079Z,101818.53
2023-02-19T14:10:14.168Z,101837.94
2023-02-19T14:12:41.972Z,101852.44
2023-02-19T14:15:28.259Z,101849.13
2023-02-19T14:17:56.103Z,101841.91
2023-02-19T14:20:47.711Z,101843.06
2023-02-19T14:23:17.605Z,101847.84
2023-02-19T14:25:56.116Z,101849.81
2023-02-19T14:28:36.664Z,101842.56
2023-02-19T14:31:09.710Z,101856.53
2023-02-19T14:33:40.249Z,101850.94
2023-02-19T14:36:13.320Z,101853.75
2023-02-19T14:38:43.371Z,101852.13
2023-02-19T14:41:11.707Z,101851.28
2023-02-19T14:43:39.570Z,101844.88
2023-02-19T14:46:08.840Z,101857.69
2023-02-19T14:48:37.773Z,101852.13
2023-02-19T14:51:06.069Z,101860.50
2023-02-19T14:53:33.755Z,101863.28
2023-02-19T14:56:03.650Z,101864.94
2023-02-19T14:58:31.736Z,101876.13
2023-02-19T15:00:59.379Z,101876.13
2023-02-19T15:03:31.208Z,101873.31
2023-02-19T15:05:59.958Z,101880.91
2023-02-19T15:08:28.920Z,101891.28
2023-02-19T15:10:56.839Z,101891.28
2023-02-19T15:13:26.142Z,101870.22
2023-02-19T15:15:55.219Z,101874.47
2023-02-19T15:18:23.662Z,101879.25
2023-02-19T15:20:51.294Z,101876.81
2023-02-19T15:23:19.890Z,101888.81
2023-02-19T15:25:48.092Z,101878.44
2023-02-19T15:28:23.267Z,101884.03
2023-02-19T15:30:52.317Z,101885.66
2023-02-19T15:33:20.457Z,101880.09
2023-02-19T15:35:49.248Z,101883.22
2023-02-19T15:38:16.898Z,101895.22
2023-02-19T15:40:45.218Z,101900.00
2023-02-19T15:43:15.728Z,101893.59
2023-02-19T15:45:43.307Z,101888.00
2023-02-19T15:48:13.185Z,101899.19
2023-02-19T15:50:41.275Z,101910.38
2023-02-19T15:53:10.152Z,101924.84
2023-02-19T15:55:38.241Z,101922.03
2023-02-19T15:58:08.599Z,101921.72
2023-02-19T16:00:37.540Z,101913.66
2023-02-19T16:03:05.574Z,101913.66
2023-02-19T16:05:40.082Z,101924.84
2023-02-19T16:08:08.773Z,101926.47
2023-02-19T16:10:36.614Z,101936.84
2023-02-19T16:13:04.612Z,101942.44
2023-02-19T16:15:33.095Z,101947.22
2023-02-19T16:18:00.894Z,101939.16
2023-02-19T16:20:28.989Z,101937.84
2023-02-19T16:22:59.716Z,101941.47
2023-02-19T16:25:28.891Z,101955.78
2023-02-19T16:27:56.610Z,101955.78
2023-02-19T16:30:26.352Z,101964.97
2023-02-19T16:33:08.860Z,101963.00
2023-02-19T16:35:36.830Z,101963.00
2023-02-19T16:38:12.522Z,101964.16
2023-02-19T16:40:55.165Z,101967.78
2023-02-19T16:43:26.570Z,101970.91
2023-02-19T16:45:54.323Z,101972.88
2023-02-19T16:48:22.393Z,101972.56
2023-02-19T16:50:50.063Z,101978.16
2023-02-19T16:53:20.276Z,101982.09
2023-02-19T16:55:48.075Z,101976.50
2023-02-19T16:58:15.713Z,101983.25
2023-02-19T17:00:43.418Z,101979.66
2023-02-19T17:03:11.669Z,101988.38
2023-02-19T17:05:39.437Z,101993.97
2023-02-19T17:08:09.714Z,101994.28
2023-02-19T17:10:38.728Z,101990.66
2023-02-19T17:13:06.311Z,101989.03
2023-02-19T17:15:34.222Z,101994.63
2023-02-19T17:18:01.837Z,101992.97
2023-02-19T17:20:30.594Z,101994.63
2023-02-19T17:22:59.002Z,101991.81
2023-02-19T17:25:26.774Z,101989.03
2023-02-19T17:27:55.778Z,101995.44
2023-02-19T17:30:25.283Z,102000.69
2023-02-19T17:32:53.025Z,102003.47
2023-02-19T17:35:20.712Z,102016.34
2023-02-19T17:37:48.597Z,102016.34
2023-02-19T17:40:31.786Z,102016.34
2023-02-19T17:43:01.086Z,102019.13
2023-02-19T17:45:28.729Z,102016.34
2023-02-19T17:47:56.304Z,102009.59
2023-02-19T17:50:24.880Z,102015.50
2023-02-19T17:52:52.607Z,102014.66
2023-02-19T17:55:20.311Z,102011.38
2023-02-19T17:57:48.120Z,102014.19
2023-02-19T18:00:17.889Z,102027.34
2023-02-19T18:02:45.636Z,102020.94
2023-02-19T18:05:13.370Z,102029.34
2023-02-19T18:07:41.088Z,102024.91
2023-02-19T18:10:09.271Z,102036.06
2023-02-19T18:12:36.883Z,102028.81
2023-02-19T18:15:04.612Z,102026.03
2023-02-19T18:17:33.591Z,102037.19
2023-02-19T18:20:01.222Z,102032.13
2023-02-19T18:22:28.795Z,102042.16
2023-02-19T18:24:56.443Z,102054.50
2023-02-19T18:27:24.466Z,102052.03
2023-02-19T18:29:52.681Z,102051.19
2023-02-19T18:32:20.454Z,102047.25
2023-02-19T18:34:51.456Z,102045.59
2023-02-19T18:37:19.154Z,102051.19
2023-02-19T18:39:46.815Z,102062.38
2023-02-19T18:42:14.707Z,102059.56
2023-02-19T18:44:42.526Z,102056.78
2023-02-19T18:47:11.398Z,102059.56
2023-02-19T18:49:38.984Z,102058.44
2023-02-19T18:52:07.904Z,102053.69
2023-02-19T18:54:35.632Z,102060.09
2023-02-19T18:57:04.454Z,102065.69
2023-02-19T18:59:32.196Z,102069.31
2023-02-19T19:02:00.145Z,102061.72
2023-02-19T19:04:29.098Z,102066.50
2023-02-19T19:06:56.870Z,102065.34
2023-02-19T19:09:25.944Z,102068.13
2023-02-19T19:11:53.614Z,102049.53
2023-02-19T19:14:21.218Z,102062.56
2023-02-19T19:16:48.803Z,102054.50
2023-02-19T19:19:16.539Z,102048.91
2023-02-19T19:21:44.213Z,102055.66
2023-02-19T19:24:12.957Z,102058.94
2023-02-19T19:26:45.984Z,102055.31
2023-02-19T19:29:14.487Z,102056.13
2023-02-19T19:31:42.270Z,102053.81
2023-02-19T19:34:09.919Z,102045.78
2023-02-19T19:36:37.626Z,102038.72
2023-02-19T19:39:05.203Z,102043.47
2023-02-19T19:41:32.828Z,102048.22
2023-02-19T19:44:04.470Z,102048.22
2023-02-19T19:46:32.176Z,102041.00
2023-02-19T19:48:59.989Z,102052.19
2023-02-19T19:51:31.608Z,102049.38
2023-02-19T19:53:59.485Z,102041.00
2023-02-19T19:56:27.181Z,102042.97
2023-02-19T19:58:54.818Z,102040.19
2023-02-19T20:01:23.879Z,102047.75
2023-02-19T20:03:52.243Z,102049.38
2023-02-19T20:06:26.999Z,102048.56
2023-02-19T20:08:54.674Z,102053.34
2023-02-19T20:11:22.379Z,102057.78
2023-02-19T20:13:49.937Z,102052.19
2023-02-19T20:16:17.558Z,102052.19
2023-02-19T20:18:46.524Z,102060.09
2023-02-19T20:21:14.514Z,102068.13
2023-02-19T20:23:42.348Z,102068.13
2023-02-19T20:26:10.071Z,102061.72
2023-02-19T20:28:37.839Z,102069.78
2023-02-19T20:31:05.836Z,102079.00
2023-02-19T20:33:33.622Z,102076.19
2023-02-19T20:36:03.498Z,102068.13
2023-02-19T20:38:31.319Z,102080.16
2023-02-19T20:40:59.312Z,102071.75
2023-02-19T20:43:28.533Z,102074.56
2023-02-19T20:45:56.469Z,102077.34
2023-02-19T20:48:24.102Z,102074.56
2023-02-19T20:50:51.728Z,102074.56
2023-02-19T20:53:20.779Z,102068.97
2023-02-19T20:55:48.360Z,102064.19
2023-02-19T20:58:16.160Z,102068.13
2023-02-19T21:00:43.742Z,102063.03
2023-02-19T21:03:11.745Z,102060.22
2023-02-19T21:05:39.864Z,102070.59
2023-02-19T21:08:07.536Z,102077.88
2023-02-19T21:10:36.738Z,102082.59
2023-02-19T21:13:04.449Z,102082.59
2023-02-19T21:15:32.063Z,102069.78
2023-02-19T21:17:59.937Z,102077.88
2023-02-19T21:20:27.675Z,102066.69
2023-02-19T21:22:55.421Z,102071.41
2023-02-19T21:25:23.082Z,102059.41
2023-02-19T21:27:52.058Z,102056.63
2023-02-19T21:30:19.859Z,102053.00
2023-02-19T21:32:47.745Z,102046.59
2023-02-19T21:35:15.551Z,102044.13
2023-02-19T21:37:44.151Z,102045.78
2023-02-19T21:40:12.478Z,102037.72
2023-02-19T21:42:40.330Z,102030.50
2023-02-19T21:45:09.560Z,102030.50
2023-02-19T21:47:37.153Z,102028.00
2023-02-19T21:50:05.041Z,102028.00
2023-02-19T21:52:32.902Z,102030.50
2023-02-19T21:55:00.786Z,102022.41
2023-02-19T21:57:28.558Z,102021.59
2023-02-19T21:59:56.388Z,102025.72
2023-02-19T22:02:26.129Z,102020.94
2023-02-19T22:04:54.612Z,102017.00
2023-02-19T22:07:22.470Z,102010.56
2023-02-19T22:09:50.475Z,102006.44
2023-02-19T22:12:18.186Z,102009.25
2023-02-19T22:14:46.178Z,101999.22
2023-02-19T22:17:14.182Z,102002.34
2023-02-19T22:19:43.707Z,101996.75
2023-02-19T22:22:11.562Z,101987.03
2023-02-19T22:24:39.125Z,101987.88
2023-02-19T22:27:06.671Z,101988.72
2023-02-19T22:29:34.672Z,101983.38
2023-02-19T22:32:02.517Z,101982.56
2023-02-19T22:34:30.311Z,101987.03
2023-02-19T22:36:59.404Z,101984.25
2023-02-19T22:39:30.516Z,101988.72
2023-02-19T22:41:58.116Z,101990.34
2023-02-19T22:44:25.853Z,101991.16
2023-02-19T22:46:54.080Z,101991.97
2023-02-19T22:49:22.120Z,101995.94
2023-02-19T22:51:50.839Z,102004.81
2023-02-19T22:54:21.887Z,102006.44
2023-02-19T22:56:49.502Z,102010.91
2023-02-19T22:59:17.138Z,102008.94
2023-02-19T23:01:44.751Z,102007.28
2023-02-19T23:04:12.386Z,102008.44
2023-02-19T23:06:41.426Z,101995.25
2023-02-19T23:09:11.050Z,101995.25
2023-02-19T23:11:40.197Z,101995.25
2023-02-19T23:14:07.812Z,101995.78
2023-02-19T23:16:36.718Z,101989.66
2023-02-19T23:19:04.894Z,101996.94
2023-02-19T23:21:32.667Z,101994.13
2023-02-19T23:24:00.259Z,102008.13
2023-02-19T23:26:27.796Z,101998.56
2023-02-19T23:28:56.792Z,102004.16
2023-02-19T23:31:26.035Z,101999.38
2023-02-19T23:33:53.664Z,101996.94
2023-02-19T23:36:23.687Z,101996.94
2023-02-19T23:38:51.456Z,101995.25
2023-02-19T23:41:19.111Z,101996.41
2023-02-19T23:43:46.792Z,101997.56
2023-02-19T23:46:17.323Z,101981.97
2023-02-19T23:48:45.937Z,101979.16
2023-02-19T23:51:13.593Z,101964.66
2023-02-19T23:53:41.177Z,101963.00
2023-02-19T23:56:08.800Z,101970.25
2023-02-19T23:58:36.584Z,101978.97
